Time;durP1;ratioP1;P1;durP2;ratioP2;P2;SDS_P1;SDS_P2;PMS_P1;PMS_P2;Temp;Humidity;BMP_temperature;BMP_pressure;BME280_temperature;BME280_humidity;BME280_pressure;Samples;Min_cycle;Max_cycle;Signal;HPM_P1;HPM_P2
2023/10/10 00:01:17;;;;;;;0.30;0.30;;;15.80;99.90;;;;;;5092285;28;20036;-75
2023/10/10 00:03:45;;;;;;;0.30;0.30;;;15.80;99.90;;;;;;5093333;28;20084;-77
2023/10/10 00:06:13;;;;;;;1.30;0.75;;;15.80;99.90;;;;;;5093523;28;20032;-76
2023/10/10 00:08:40;;;;;;;0.30;0.30;;;15.80;99.90;;;;;;5093508;28;20548;-76
2023/10/10 00:11:18;;;;;;;0.38;0.38;;;15.80;99.90;;;;;;5093196;28;20377;-75
2023/10/10 00:13:52;;;;;;;0.30;0.30;;;15.80;99.90;;;;;;5093572;28;20067;-75
2023/10/10 00:16:26;;;;;;;0.30;0.30;;;15.80;99.90;;;;;;5093546;28;20057;-75
2023/10/10 00:18:56;;;;;;;0.28;0.28;;;15.80;99.90;;;;;;5093037;28;20549;-75
2023/10/10 00:21:28;;;;;;;0.20;0.20;;;15.80;99.90;;;;;;5093309;28;20435;-76
2023/10/10 00:23:55;;;;;;;0.30;0.30;;;15.80;99.90;;;;;;5092029;28;20036;-76
2023/10/10 00:26:25;;;;;;;0.40;0.40;;;15.80;99.90;;;;;;5093449;28;20040;-75
2023/10/10 00:28:55;;;;;;;0.30;0.30;;;15.80;99.90;;;;;;5093243;28;20053;-75
2023/10/10 00:31:26;;;;;;;0.20;0.20;;;15.80;99.90;;;;;;5092145;28;20040;-77
2023/10/10 00:33:52;;;;;;;0.30;0.30;;;15.80;99.90;;;;;;5093194;28;20127;-76
2023/10/10 00:36:22;;;;;;;0.30;0.30;;;15.80;99.90;;;;;;5092153;28;20119;-75
2023/10/10 00:39:22;;;;;;;0.32;0.30;;;15.80;99.90;;;;;;5093772;28;20398;-76
2023/10/10 00:44:17;;;;;;;0.52;0.40;;;15.80;99.90;;;;;;5093230;28;20124;-74
2023/10/10 00:46:54;;;;;;;0.30;0.30;;;15.80;99.90;;;;;;5093014;28;20446;-74
2023/10/10 00:49:25;;;;;;;0.30;0.30;;;15.80;99.90;;;;;;5095944;28;20142;-77
2023/10/10 00:51:56;;;;;;;0.63;0.63;;;15.80;99.90;;;;;;5096892;28;20040;-76
2023/10/10 00:56:54;;;;;;;0.77;0.68;;;15.80;99.90;;;;;;5096978;28;20048;-75
2023/10/10 00:59:32;;;;;;;0.30;0.30;;;15.80;99.90;;;;;;5096576;28;20413;-76
2023/10/10 01:01:58;;;;;;;0.30;0.30;;;15.80;99.90;;;;;;5096997;28;20046;-76
2023/10/10 01:07:10;;;;;;;0.40;0.35;;;15.80;99.90;;;;;;5065255;28;20364;-74
2023/10/10 01:09:56;;;;;;;0.30;0.30;;;15.80;99.90;;;;;;5097320;28;20106;-75
2023/10/10 01:12:35;;;;;;;1.58;0.60;;;15.80;99.90;;;;;;5096500;28;20040;-75
2023/10/10 01:15:08;;;;;;;0.35;0.35;;;15.80;99.90;;;;;;5096542;28;20040;-75
2023/10/10 01:17:38;;;;;;;0.50;0.50;;;15.70;99.90;;;;;;5096499;28;20032;-76
2023/10/10 01:20:14;;;;;;;0.45;0.45;;;15.70;99.90;;;;;;5096478;28;20058;-76
2023/10/10 01:22:40;;;;;;;0.47;0.47;;;15.70;99.90;;;;;;5096611;28;20387;-76
2023/10/10 01:25:31;;;;;;;0.30;0.30;;;15.70;99.90;;;;;;5096205;28;20039;-75
2023/10/10 01:28:02;;;;;;;0.30;0.30;;;15.70;99.90;;;;;;5096385;28;20061;-77
2023/10/10 01:33:16;;;;;;;0.52;0.52;;;15.70;99.90;;;;;;5096323;28;20044;-77
2023/10/10 01:35:43;;;;;;;0.50;0.50;;;15.70;99.90;;;;;;5096103;28;20238;-75
2023/10/10 01:38:33;;;;;;;0.30;0.30;;;15.70;99.90;;;;;;5094967;28;20368;-76
2023/10/10 01:41:04;;;;;;;0.55;0.55;;;15.70;99.90;;;;;;5057157;28;20051;-76
2023/10/10 01:43:33;;;;;;;0.45;0.45;;;15.70;99.90;;;;;;5096125;28;20076;-75
2023/10/10 01:46:18;;;;;;;0.30;0.30;;;15.70;99.90;;;;;;5095900;28;20036;-75
2023/10/10 01:48:44;;;;;;;0.40;0.40;;;15.70;99.90;;;;;;5095684;28;20379;-75
2023/10/10 01:51:14;;;;;;;0.40;0.40;;;15.70;99.90;;;;;;5094925;28;20036;-74
2023/10/10 01:53:40;;;;;;;0.68;0.40;;;15.70;99.90;;;;;;5096047;28;20040;-76
2023/10/10 01:56:07;;;;;;;0.30;0.30;;;15.70;99.90;;;;;;5095544;28;20482;-74
2023/10/10 01:58:36;;;;;;;0.35;0.35;;;15.70;99.90;;;;;;5095725;28;20109;-75
2023/10/10 02:01:16;;;;;;;0.30;0.30;;;15.70;99.90;;;;;;5095267;28;20422;-77
2023/10/10 02:03:42;;;;;;;0.30;0.30;;;15.70;99.90;;;;;;5095774;28;20036;-76
2023/10/10 02:06:13;;;;;;;0.30;0.30;;;15.70;99.90;;;;;;5095648;28;20051;-75
2023/10/10 02:08:38;;;;;;;0.40;0.40;;;15.70;99.90;;;;;;5095489;28;20061;-75
2023/10/10 02:11:06;;;;;;;0.30;0.30;;;15.70;99.90;;;;;;5095384;28;20036;-75
2023/10/10 02:13:33;;;;;;;0.30;0.30;;;15.70;99.90;;;;;;5093662;28;20050;-76
2023/10/10 02:16:04;;;;;;;0.30;0.30;;;15.70;99.90;;;;;;5095592;28;20055;-75
2023/10/10 02:18:40;;;;;;;0.32;0.32;;;15.70;99.90;;;;;;5095467;28;20040;-76
2023/10/10 02:21:09;;;;;;;0.68;0.40;;;15.70;99.90;;;;;;5095136;28;20384;-75
2023/10/10 02:23:35;;;;;;;0.45;0.45;;;15.70;99.90;;;;;;5094805;28;20051;-77
2023/10/10 02:26:07;;;;;;;0.77;0.73;;;15.70;99.90;;;;;;5095056;28;20083;-74
2023/10/10 02:29:16;;;;;;;0.52;0.52;;;15.70;99.90;;;;;;5095094;28;20050;-75
2023/10/10 02:31:19;;;;;;;0.30;0.30;;;15.70;99.90;;;;;;5094555;28;20453;-77
2023/10/10 02:33:48;;;;;;;0.32;0.32;;;15.60;99.90;;;;;;5094970;28;20040;-75
2023/10/10 02:36:30;;;;;;;0.30;0.30;;;15.70;99.90;;;;;;5095070;28;20059;-75
2023/10/10 02:38:57;;;;;;;0.30;0.30;;;15.70;99.90;;;;;;5094757;28;20036;-75
2023/10/10 02:41:38;;;;;;;1.42;0.85;;;15.60;99.90;;;;;;5094837;28;20119;-76
2023/10/10 02:44:08;;;;;;;5.40;1.17;;;15.60;99.90;;;;;;5094592;28;20036;-78
2023/10/10 02:46:39;;;;;;;0.30;0.30;;;15.60;99.90;;;;;;5094792;28;20077;-75
2023/10/10 02:49:12;;;;;;;0.30;0.30;;;15.60;99.90;;;;;;5094726;28;20118;-76
2023/10/10 02:51:48;;;;;;;0.30;0.30;;;15.60;99.90;;;;;;5094626;28;20484;-77
2023/10/10 02:54:27;;;;;;;0.30;0.30;;;15.60;99.90;;;;;;5094794;28;20040;-76
2023/10/10 02:56:57;;;;;;;0.30;0.30;;;15.60;99.90;;;;;;5094445;28;20126;-76
2023/10/10 02:59:37;;;;;;;0.30;0.30;;;15.60;99.90;;;;;;5093713;28;20052;-76
2023/10/10 03:02:18;;;;;;;0.30;0.30;;;15.60;99.90;;;;;;5094308;28;20123;-75
2023/10/10 03:07:31;;;;;;;0.28;0.28;;;15.50;99.90;;;;;;5094396;28;20047;-75
2023/10/10 03:12:30;;;;;;;0.40;0.40;;;15.50;99.90;;;;;;5093652;28;20051;-76
2023/10/10 03:15:27;;;;;;;0.32;0.32;;;15.50;99.90;;;;;;5094187;28;20032;-76
2023/10/10 03:20:33;;;;;;;0.40;0.40;;;15.40;99.90;;;;;;5093853;28;20051;-76
2023/10/10 03:30:55;;;;;;;0.83;0.83;;;15.30;99.90;;;;;;5093620;28;20126;-74
2023/10/10 05:25:10;;;;;;;0.40;0.40;;;15.20;99.90;;;;;;5096523;28;20043;-73
2023/10/10 05:27:41;;;;;;;0.40;0.40;;;15.20;99.90;;;;;;5096328;28;20052;-74
2023/10/10 05:30:25;;;;;;;0.85;0.82;;;15.10;99.90;;;;;;5094999;28;20044;-74
2023/10/10 05:33:00;;;;;;;0.40;0.40;;;15.10;99.90;;;;;;5096475;28;20379;-74
2023/10/10 05:35:48;;;;;;;0.30;0.30;;;15.10;99.90;;;;;;5095698;28;20078;-76
2023/10/10 05:38:15;;;;;;;0.40;0.40;;;15.10;99.90;;;;;;5096027;28;20042;-75
2023/10/10 05:40:43;;;;;;;0.40;0.40;;;15.10;99.90;;;;;;5096254;28;20418;-76
2023/10/10 05:43:14;;;;;;;0.32;0.32;;;15.10;99.90;;;;;;5095945;28;20044;-75
2023/10/10 05:45:41;;;;;;;0.40;0.40;;;15.10;99.90;;;;;;5096176;28;20043;-74
2023/10/10 05:48:07;;;;;;;1.45;0.50;;;15.10;99.90;;;;;;5095732;28;20119;-77
2023/10/10 05:50:40;;;;;;;0.55;0.47;;;15.00;99.90;;;;;;5095952;28;20040;-77
2023/10/10 05:53:07;;;;;;;0.60;0.60;;;15.00;99.90;;;;;;5095506;28;20035;-78
2023/10/10 05:55:37;;;;;;;0.32;0.32;;;15.10;99.90;;;;;;5096027;28;20032;-78
2023/10/10 05:58:04;;;;;;;0.60;0.60;;;15.00;99.90;;;;;;5094419;28;20040;-77
2023/10/10 06:00:36;;;;;;;0.50;0.50;;;15.00;99.90;;;;;;5095199;28;20055;-75
2023/10/10 06:03:03;;;;;;;0.70;0.60;;;14.90;99.90;;;;;;5095679;28;20367;-73
2023/10/10 06:05:29;;;;;;;;;;;14.90;99.90;;;;;;5095614;28;20040;-75
2023/10/10 06:07:59;;;;;;;0.40;0.40;;;14.90;99.90;;;;;;5095199;28;19942;-78
2023/10/10 06:10:28;;;;;;;0.82;0.60;;;14.90;99.90;;;;;;5095726;28;20083;-77
2023/10/10 06:12:55;;;;;;;0.50;0.50;;;14.90;99.90;;;;;;5095494;28;20035;-75
2023/10/10 06:15:23;;;;;;;3.05;0.98;;;14.90;99.90;;;;;;5094598;28;20048;-79
2023/10/10 06:17:49;;;;;;;2.73;0.70;;;14.90;99.90;;;;;;5095572;28;20043;-74
2023/10/10 06:20:21;;;;;;;0.40;0.40;;;14.90;99.90;;;;;;5094027;28;20036;-74
2023/10/10 06:22:48;;;;;;;0.60;0.60;;;14.90;99.90;;;;;;5092732;28;20040;-75
2023/10/10 06:25:17;;;;;;;;;;;14.90;99.90;;;;;;5096342;28;20048;-72
2023/10/10 06:27:46;;;;;;;0.52;0.52;;;14.90;99.90;;;;;;5095409;28;20006;-76
2023/10/10 06:30:17;;;;;;;0.70;0.70;;;14.90;99.90;;;;;;5095397;28;20044;-76
2023/10/10 06:32:47;;;;;;;0.70;0.70;;;14.90;99.90;;;;;;5095246;28;20040;-76
2023/10/10 06:37:42;;;;;;;0.40;0.40;;;14.90;99.90;;;;;;5095247;28;20130;-73
2023/10/10 06:40:13;;;;;;;0.47;0.47;;;14.90;99.90;;;;;;5095229;28;20119;-73
2023/10/10 06:42:44;;;;;;;0.40;0.40;;;14.90;99.90;;;;;;5095018;28;20115;-73
2023/10/10 06:45:11;;;;;;;0.60;0.60;;;15.00;99.90;;;;;;5093355;28;20093;-75
2023/10/10 06:47:39;;;;;;;0.88;0.60;;;15.10;99.90;;;;;;5094494;28;20115;-74
2023/10/10 06:50:11;;;;;;;0.52;0.52;;;15.10;99.90;;;;;;5095049;28;20040;-74
2023/10/10 06:52:37;;;;;;;0.52;0.52;;;15.10;99.90;;;;;;5094866;28;20043;-76
2023/10/10 06:55:13;;;;;;;0.73;0.73;;;15.20;99.90;;;;;;5094904;28;20040;-73
2023/10/10 06:57:39;;;;;;;1.02;0.80;;;15.20;99.90;;;;;;5094936;28;20089;-76
2023/10/10 07:00:20;;;;;;;0.53;0.53;;;15.20;99.90;;;;;;5094829;28;20051;-75
2023/10/10 07:02:52;;;;;;;0.90;0.73;;;15.30;99.90;;;;;;5094043;28;20039;-72
2023/10/10 07:05:19;;;;;;;1.23;0.85;;;15.40;99.90;;;;;;5094699;28;20039;-72
2023/10/10 07:07:58;;;;;;;0.50;0.50;;;15.40;99.90;;;;;;5094362;28;20048;-75
2023/10/10 07:10:35;;;;;;;0.63;0.63;;;15.50;99.90;;;;;;5094449;28;20047;-74
2023/10/10 07:13:02;;;;;;;;;;;15.60;99.90;;;;;;5095641;28;20413;-72
2023/10/10 07:15:35;;;;;;;0.82;0.68;;;15.70;99.90;;;;;;5094387;28;20344;-76
2023/10/10 07:18:22;;;;;;;0.70;0.50;;;15.70;99.90;;;;;;5094229;28;20391;-75
2023/10/10 07:21:06;;;;;;;0.77;0.77;;;15.80;99.90;;;;;;5094585;28;20464;-75
2023/10/10 07:23:37;;;;;;;0.88;0.70;;;15.80;99.90;;;;;;5094825;28;20036;-74
2023/10/10 07:26:18;;;;;;;0.80;0.80;;;15.80;99.90;;;;;;5093711;28;20056;-73
2023/10/10 07:28:49;;;;;;;0.98;0.82;;;15.90;99.90;;;;;;5094003;28;20047;-73
2023/10/10 07:31:23;;;;;;;0.65;0.65;;;15.90;99.90;;;;;;5094252;28;20080;-72
2023/10/10 07:33:56;;;;;;;0.50;0.50;;;15.90;99.90;;;;;;5094676;28;20109;-75
2023/10/10 07:36:26;;;;;;;1.02;0.82;;;15.90;99.90;;;;;;5094225;28;20487;-73
2023/10/10 07:39:32;;;;;;;0.95;0.88;;;15.90;99.90;;;;;;5094229;28;20317;-75
2023/10/10 07:41:47;;;;;;;2.50;1.45;;;16.00;99.90;;;;;;5093914;28;20365;-76
2023/10/10 07:44:22;;;;;;;2.08;0.80;;;16.00;99.90;;;;;;5092905;28;20055;-73
2023/10/10 07:49:33;;;;;;;1.83;1.20;;;16.10;99.90;;;;;;5093289;28;20043;-71
2023/10/10 07:52:02;;;;;;;1.77;1.10;;;16.10;99.90;;;;;;5093150;28;20035;-71
2023/10/10 07:54:41;;;;;;;1.35;1.00;;;16.20;99.90;;;;;;5093997;28;20040;-70
2023/10/10 07:57:11;;;;;;;2.00;1.77;;;16.20;99.90;;;;;;5092013;28;20396;-72
2023/10/10 07:59:37;;;;;;;1.00;0.90;;;16.30;99.90;;;;;;5093413;28;20085;-71
2023/10/10 08:04:51;;;;;;;1.02;0.93;;;16.40;99.90;;;;;;5093382;28;20087;-73
2023/10/10 08:07:19;;;;;;;1.10;1.00;;;16.50;99.90;;;;;;5093428;28;20387;-75
2023/10/10 08:09:48;;;;;;;1.27;1.15;;;16.50;99.90;;;;;;5093339;28;20044;-72
2023/10/10 08:12:15;;;;;;;1.27;1.17;;;16.50;99.90;;;;;;5093542;28;20039;-73
2023/10/10 08:14:42;;;;;;;1.92;1.70;;;16.60;99.90;;;;;;5093505;28;20040;-70
2023/10/10 08:17:21;;;;;;;;;;;16.60;99.90;;;;;;5093446;28;20060;-72
2023/10/10 08:19:53;;;;;;;3.28;1.65;;;16.70;99.90;;;;;;5093239;28;19966;-72
2023/10/10 08:22:25;;;;;;;1.60;1.50;;;16.70;99.90;;;;;;5093293;28;20036;-71
2023/10/10 08:24:54;;;;;;;1.27;1.17;;;16.80;99.90;;;;;;5093197;28;20081;-73
2023/10/10 08:27:22;;;;;;;1.75;1.27;;;16.80;99.90;;;;;;5093624;28;20384;-72
2023/10/10 08:29:50;;;;;;;3.15;2.20;;;16.80;99.90;;;;;;5092840;28;20096;-71
2023/10/10 08:32:16;;;;;;;1.63;1.52;;;16.80;99.90;;;;;;5093164;28;20043;-71
2023/10/10 08:34:42;;;;;;;4.63;2.40;;;16.80;99.90;;;;;;5093273;28;20170;-74
2023/10/10 08:37:09;;;;;;;2.03;1.57;;;16.80;99.90;;;;;;5092380;28;20478;-71
2023/10/10 08:39:35;;;;;;;;;;;16.80;99.90;;;;;;5093363;28;20048;-73
2023/10/10 08:42:05;;;;;;;1.70;1.60;;;16.80;99.90;;;;;;5093066;28;19923;-74
2023/10/10 08:44:38;;;;;;;2.28;1.77;;;16.80;99.90;;;;;;5091495;28;20046;-70
2023/10/10 08:47:16;;;;;;;1.08;0.90;;;16.70;99.90;;;;;;5092686;28;20441;-70
2023/10/10 08:49:42;;;;;;;2.25;1.70;;;16.70;99.90;;;;;;5093162;28;20044;-70
2023/10/10 08:52:09;;;;;;;2.17;1.55;;;16.70;99.90;;;;;;5092822;28;20123;-75
2023/10/10 08:54:35;;;;;;;;;;;16.80;99.90;;;;;;5093124;28;20032;-72
2023/10/10 08:57:03;;;;;;;3.10;1.55;;;16.80;99.90;;;;;;5091123;28;19922;-73
2023/10/10 08:59:32;;;;;;;1.35;1.23;;;16.80;99.90;;;;;;5092497;28;20184;-74
2023/10/10 09:02:07;;;;;;;2.97;1.90;;;16.90;99.90;;;;;;5092458;28;20043;-76
2023/10/10 09:04:33;;;;;;;2.15;1.42;;;16.90;99.90;;;;;;5087586;28;20702;-77
2023/10/10 09:07:01;;;;;;;1.40;1.13;;;17.00;99.90;;;;;;5092365;28;20480;-73
2023/10/10 09:09:33;;;;;;;1.83;1.67;;;17.00;99.90;;;;;;5094103;28;20048;-74
2023/10/10 09:12:03;;;;;;;2.15;1.95;;;17.10;99.90;;;;;;5096571;28;20048;-74
2023/10/10 09:14:41;;;;;;;1.67;1.27;;;17.10;99.90;;;;;;5095133;28;20115;-76
2023/10/10 09:17:08;;;;;;;1.83;1.25;;;17.20;99.90;;;;;;5096434;28;20123;-78
2023/10/10 09:19:47;;;;;;;2.58;2.38;;;17.30;99.90;;;;;;5096466;28;20482;-74
2023/10/10 09:22:44;;;;;;;3.25;2.42;;;17.30;99.90;;;;;;5096141;28;20392;-74
2023/10/10 09:25:20;;;;;;;2.67;1.75;;;17.40;99.90;;;;;;5079359;28;20052;-76
2023/10/10 09:28:04;;;;;;;1.67;1.58;;;17.50;99.90;;;;;;5096836;28;20066;-74
2023/10/10 09:30:32;;;;;;;6.03;2.05;;;17.50;99.90;;;;;;5096011;28;20038;-75
2023/10/10 09:35:49;;;;;;;2.50;1.42;;;17.60;99.90;;;;;;5096496;28;20044;-74
2023/10/10 09:38:19;;;;;;;2.47;1.58;;;17.70;99.90;;;;;;5095965;28;20521;-75
2023/10/10 09:40:48;;;;;;;2.67;1.70;;;17.80;99.90;;;;;;5096011;28;20040;-76
2023/10/10 09:43:24;;;;;;;2.08;1.83;;;18.00;99.90;;;;;;5095953;28;20047;-75
2023/10/10 09:46:10;;;;;;;2.53;1.35;;;18.10;99.90;;;;;;5095852;28;20074;-75
2023/10/10 09:51:30;;;;;;;1.05;0.95;;;18.30;99.90;;;;;;5095768;28;20052;-75
2023/10/10 09:54:18;;;;;;;2.17;1.83;;;18.20;99.90;;;;;;5095877;28;20040;-75
2023/10/10 09:56:48;;;;;;;3.58;2.60;;;18.30;99.90;;;;;;5095429;28;20048;-76
2023/10/10 09:59:20;;;;;;;3.35;2.25;;;18.40;99.90;;;;;;5098006;28;20028;-74
2023/10/10 10:01:59;;;;;;;1.00;0.90;;;18.50;99.90;;;;;;5097211;28;20036;-75
2023/10/10 10:04:36;;;;;;;3.10;1.90;;;18.60;99.90;;;;;;5094239;28;20100;-73
2023/10/10 10:07:20;;;;;;;1.45;1.20;;;18.60;99.90;;;;;;5094128;28;20127;-77
2023/10/10 10:09:56;;;;;;;7.72;1.52;;;18.70;99.90;;;;;;5094123;28;20040;-75
2023/10/10 10:12:36;;;;;;;1.77;1.35;;;18.70;99.90;;;;;;5094808;28;20047;-77
2023/10/10 10:15:19;;;;;;;1.75;1.65;;;18.80;99.90;;;;;;5095897;28;20373;-77
2023/10/10 10:17:53;;;;;;;2.03;1.58;;;18.90;99.90;;;;;;5095625;28;20119;-74
2023/10/10 10:20:44;;;;;;;3.92;2.47;;;18.90;99.90;;;;;;5095590;28;20093;-73
2023/10/10 10:23:25;;;;;;;3.17;2.05;;;19.00;99.90;;;;;;5095427;28;20491;-75
2023/10/10 10:25:54;;;;;;;2.10;1.75;;;19.10;99.90;;;;;;5095523;28;20040;-76
2023/10/10 10:28:28;;;;;;;2.20;1.85;;;19.20;99.90;;;;;;5095490;28;20036;-77
2023/10/10 10:30:54;;;;;;;1.63;1.45;;;19.20;99.90;;;;;;5096202;28;20363;-78
2023/10/10 10:33:33;;;;;;;2.03;1.55;;;19.20;99.90;;;;;;5096413;28;20036;-76
2023/10/10 10:36:06;;;;;;;2.08;1.65;;;19.20;99.90;;;;;;5097510;28;20036;-75
2023/10/10 10:38:34;;;;;;;2.20;2.00;;;19.30;99.90;;;;;;5098010;28;20036;-75
2023/10/10 10:41:16;;;;;;;2.33;1.45;;;19.30;99.90;;;;;;5096840;28;20040;-75
2023/10/10 10:43:49;;;;;;;4.07;1.35;;;19.30;99.90;;;;;;5097701;28;20043;-76
2023/10/10 10:46:27;;;;;;;2.05;1.83;;;19.40;99.90;;;;;;5096423;28;20042;-76
2023/10/10 10:49:02;;;;;;;2.10;1.52;;;19.30;99.90;;;;;;5095216;28;20043;-76
2023/10/10 10:51:43;;;;;;;1.63;1.35;;;19.40;99.90;;;;;;5094089;28;20046;-76
2023/10/10 10:54:09;;;;;;;2.85;1.10;;;19.40;99.90;;;;;;5095173;28;20036;-76
2023/10/10 10:59:13;;;;;;;9.70;1.15;;;19.60;99.90;;;;;;5095389;28;20076;-77
2023/10/10 11:01:56;;;;;;;4.15;1.70;;;19.70;99.90;;;;;;5094881;28;20047;-77
2023/10/10 11:07:00;;;;;;;2.35;1.52;;;19.90;99.90;;;;;;5095238;28;20047;-77
2023/10/10 11:09:30;;;;;;;1.90;1.35;;;20.00;99.90;;;;;;5095156;28;20540;-76
2023/10/10 11:12:04;;;;;;;3.42;1.73;;;20.00;99.90;;;;;;5094556;28;20105;-77
2023/10/10 11:14:34;;;;;;;1.60;1.42;;;20.10;99.90;;;;;;5094522;28;20036;-77
2023/10/10 11:17:00;;;;;;;3.17;1.35;;;20.20;99.90;;;;;;5094558;28;20051;-76
2023/10/10 11:22:01;;;;;;;2.53;1.83;;;20.40;99.90;;;;;;5094707;28;20051;-76
2023/10/10 11:24:29;;;;;;;2.05;1.50;;;20.50;99.90;;;;;;5094502;28;20040;-77
2023/10/10 11:27:07;;;;;;;4.28;1.38;;;20.50;99.90;;;;;;5094448;28;20040;-77
2023/10/10 11:29:47;;;;;;;4.43;0.95;;;20.50;99.90;;;;;;5094300;28;20052;-76
2023/10/10 11:32:25;;;;;;;1.23;1.13;;;20.60;99.90;;;;;;5094238;28;20040;-77
2023/10/10 11:34:56;;;;;;;1.58;1.42;;;20.50;99.90;;;;;;5093972;28;20471;-76
2023/10/10 11:37:30;;;;;;;3.17;1.30;;;20.50;99.90;;;;;;5094329;28;20050;-76
2023/10/10 11:43:22;;;;;;;2.17;1.67;;;20.70;99.90;;;;;;5094476;28;20040;-77
2023/10/10 11:45:51;;;;;;;1.10;0.73;;;20.70;99.90;;;;;;5092054;28;20052;-76
2023/10/10 11:48:26;;;;;;;1.48;0.93;;;20.70;99.90;;;;;;5093830;28;20086;-76
2023/10/10 11:50:56;;;;;;;1.98;1.75;;;20.80;99.90;;;;;;5094022;28;20044;-76
2023/10/10 11:53:29;;;;;;;1.73;1.27;;;20.90;99.90;;;;;;5094072;28;20048;-77
2023/10/10 11:56:01;;;;;;;1.85;1.65;;;20.90;99.90;;;;;;5094284;28;20044;-76
2023/10/10 11:58:36;;;;;;;1.67;1.45;;;21.00;99.90;;;;;;5094028;28;20119;-75
2023/10/10 12:01:10;;;;;;;2.72;0.80;;;21.10;99.90;;;;;;5093875;28;20043;-76
2023/10/10 12:06:04;;;;;;;1.87;1.40;;;21.10;99.90;;;;;;5076775;28;20092;-75
2023/10/10 12:08:30;;;;;;;1.30;0.90;;;21.20;99.90;;;;;;5094455;28;20050;-75
2023/10/10 12:11:11;;;;;;;1.30;1.20;;;21.30;99.90;;;;;;5094332;28;20036;-77
2023/10/10 12:13:37;;;;;;;2.58;1.33;;;21.40;99.90;;;;;;5094279;28;20040;-78
2023/10/10 12:16:10;;;;;;;1.17;0.93;;;21.50;99.90;;;;;;5094033;28;20121;-76
2023/10/10 12:18:44;;;;;;;1.10;0.95;;;21.60;99.90;;;;;;5093955;28;20491;-76
2023/10/10 12:21:20;;;;;;;1.23;0.80;;;21.80;99.90;;;;;;5093894;28;20079;-76
2023/10/10 12:23:55;;;;;;;1.25;0.77;;;21.80;99.90;;;;;;5092504;28;20036;-76
2023/10/10 12:26:22;;;;;;;1.10;0.93;;;21.90;99.90;;;;;;5094115;28;20048;-78
2023/10/10 12:28:48;;;;;;;;;;;21.90;99.90;;;;;;5093992;28;20047;-76
2023/10/10 12:31:17;;;;;;;2.10;1.20;;;21.90;99.90;;;;;;5093901;28;19916;-77
2023/10/10 12:33:48;;;;;;;0.98;0.90;;;21.90;99.90;;;;;;5092442;28;20161;-77
2023/10/10 12:36:14;;;;;;;0.82;0.77;;;21.80;99.90;;;;;;5093804;28;20395;-76
2023/10/10 12:38:40;;;;;;;;;;;21.70;99.90;;;;;;5093976;28;20050;-77
2023/10/10 12:41:06;;;;;;;1.00;0.90;;;21.70;99.90;;;;;;5093219;28;19916;-76
2023/10/10 12:43:31;;;;;;;3.33;0.90;;;21.70;99.90;;;;;;5093449;28;20116;-77
2023/10/10 12:46:00;;;;;;;1.17;1.07;;;21.70;99.90;;;;;;5097300;28;20136;-78
2023/10/10 12:48:26;;;;;;;1.10;0.77;;;21.70;99.90;;;;;;5097349;28;20464;-75
2023/10/10 12:50:52;;;;;;;1.00;0.70;;;21.70;99.90;;;;;;5097289;28;20036;-77
2023/10/10 12:53:19;;;;;;;1.33;1.03;;;21.70;99.90;;;;;;5096041;28;20043;-75
2023/10/10 12:55:51;;;;;;;0.70;0.70;;;21.60;99.90;;;;;;5097673;28;20047;-77
2023/10/10 12:58:20;;;;;;;1.13;0.93;;;21.60;99.90;;;;;;5097554;28;20028;-77
2023/10/10 13:00:50;;;;;;;1.58;1.08;;;21.50;99.90;;;;;;5097145;28;20418;-77
2023/10/10 13:03:23;;;;;;;1.17;0.93;;;21.60;99.90;;;;;;5096850;28;20467;-75
2023/10/10 13:05:52;;;;;;;1.10;0.73;;;21.40;99.90;;;;;;5097319;28;20429;-77
2023/10/10 13:08:20;;;;;;;0.60;0.60;;;21.40;99.90;;;;;;5097282;28;20418;-76
2023/10/10 13:10:55;;;;;;;1.38;1.10;;;21.30;99.90;;;;;;5096816;28;20119;-75
2023/10/10 13:13:27;;;;;;;0.50;0.50;;;21.20;99.90;;;;;;5097019;28;20054;-75
2023/10/10 13:16:22;;;;;;;0.75;0.57;;;21.10;99.90;;;;;;5095822;28;20126;-76
2023/10/10 13:18:48;;;;;;;1.10;0.75;;;21.00;99.90;;;;;;5097032;28;20031;-77
2023/10/10 13:21:14;;;;;;;;;;;21.00;99.90;;;;;;5097170;28;20036;-75
2023/10/10 13:23:43;;;;;;;0.60;0.60;;;20.90;99.90;;;;;;5096674;28;19916;-77
2023/10/10 13:26:09;;;;;;;0.88;0.88;;;20.90;99.90;;;;;;5096674;28;20040;-77
2023/10/10 13:28:36;;;;;;;1.02;0.75;;;20.90;99.90;;;;;;5096677;28;20036;-75
2023/10/10 13:31:02;;;;;;;0.68;0.68;;;20.90;99.90;;;;;;5096307;28;20484;-76
2023/10/10 13:33:28;;;;;;;0.37;0.37;;;20.80;99.90;;;;;;5096548;28;20047;-76
2023/10/10 13:35:54;;;;;;;0.87;0.73;;;20.80;99.90;;;;;;5096982;28;20278;-75
2023/10/10 13:38:19;;;;;;;0.70;0.60;;;20.80;99.90;;;;;;5096547;28;20043;-76
2023/10/10 13:40:46;;;;;;;0.87;0.63;;;20.70;99.90;;;;;;5097015;28;20080;-77
2023/10/10 13:43:18;;;;;;;0.43;0.43;;;20.70;99.90;;;;;;5096545;28;20372;-76
2023/10/10 13:45:45;;;;;;;0.70;0.70;;;20.70;99.90;;;;;;5096437;28;20040;-78
2023/10/10 13:48:14;;;;;;;0.60;0.57;;;20.70;99.90;;;;;;5096348;28;20043;-76
2023/10/10 13:50:43;;;;;;;0.65;0.65;;;20.70;99.90;;;;;;5096354;28;20084;-76
2023/10/10 13:53:13;;;;;;;0.65;0.60;;;20.70;99.90;;;;;;5096833;28;20079;-78
2023/10/10 13:55:43;;;;;;;1.67;1.23;;;20.70;99.90;;;;;;5094574;28;20042;-77
2023/10/10 13:58:11;;;;;;;1.08;0.98;;;20.70;99.90;;;;;;5095794;28;20143;-77
2023/10/10 14:00:43;;;;;;;0.70;0.70;;;20.70;99.90;;;;;;5095977;28;20460;-75
2023/10/10 14:03:09;;;;;;;2.22;0.75;;;20.60;99.90;;;;;;5095949;28;20059;-78
2023/10/10 14:05:36;;;;;;;;;;;20.70;99.90;;;;;;5095628;28;20044;-78
2023/10/10 14:08:06;;;;;;;1.05;0.93;;;20.70;99.90;;;;;;5095704;28;19920;-77
2023/10/10 14:10:36;;;;;;;2.88;0.70;;;20.70;99.90;;;;;;5095916;28;20043;-78
2023/10/10 14:13:18;;;;;;;0.82;0.80;;;20.70;99.90;;;;;;5094654;28;20048;-76
2023/10/10 14:15:54;;;;;;;1.17;1.08;;;20.70;99.90;;;;;;5096140;28;20372;-76
2023/10/10 14:18:21;;;;;;;0.77;0.63;;;20.70;99.90;;;;;;5095829;28;20048;-77
2023/10/10 14:20:48;;;;;;;0.65;0.65;;;20.70;99.90;;;;;;5095670;28;20044;-77
2023/10/10 14:23:14;;;;;;;0.50;0.50;;;20.60;99.90;;;;;;5094320;28;20032;-76
2023/10/10 14:25:45;;;;;;;1.00;0.90;;;20.60;99.90;;;;;;5094382;28;20055;-76
2023/10/10 14:28:16;;;;;;;1.05;0.90;;;20.60;99.90;;;;;;5095872;28;20043;-76
2023/10/10 14:30:43;;;;;;;0.65;0.60;;;20.50;99.90;;;;;;5095534;28;20079;-76
2023/10/10 14:33:08;;;;;;;0.80;0.80;;;20.50;99.90;;;;;;5094525;28;20071;-76
2023/10/10 14:35:34;;;;;;;0.80;0.60;;;20.50;99.90;;;;;;5095311;28;20148;-76
2023/10/10 14:38:00;;;;;;;1.67;0.90;;;20.40;99.90;;;;;;5095347;28;20047;-76
2023/10/10 14:40:26;;;;;;;0.57;0.47;;;20.40;99.90;;;;;;5093895;28;20119;-76
2023/10/10 14:42:52;;;;;;;0.53;0.53;;;20.40;99.90;;;;;;5095257;28;20092;-75
2023/10/10 14:45:28;;;;;;;0.50;0.50;;;20.50;99.90;;;;;;5095307;28;20286;-76
2023/10/10 14:47:55;;;;;;;0.60;0.60;;;20.40;99.90;;;;;;5095294;28;20039;-76
2023/10/10 14:50:24;;;;;;;1.25;0.73;;;20.50;99.90;;;;;;5093681;28;20539;-77
2023/10/10 14:52:53;;;;;;;0.90;0.60;;;20.50;99.90;;;;;;5095651;28;20036;-77
2023/10/10 14:55:27;;;;;;;0.98;0.60;;;20.40;99.90;;;;;;5095428;28;20039;-75
2023/10/10 14:57:57;;;;;;;2.08;0.63;;;20.40;99.90;;;;;;5095181;28;20051;-76
2023/10/10 15:00:28;;;;;;;1.13;0.77;;;20.40;99.90;;;;;;5094759;28;20083;-76
2023/10/10 15:02:54;;;;;;;0.52;0.50;;;20.30;99.90;;;;;;5094813;28;20040;-74
2023/10/10 15:05:26;;;;;;;0.50;0.50;;;20.30;99.90;;;;;;5094875;28;20032;-75
2023/10/10 15:07:53;;;;;;;0.77;0.77;;;20.20;99.90;;;;;;5093783;28;20059;-76
2023/10/10 15:10:23;;;;;;;0.70;0.70;;;20.20;99.90;;;;;;5095384;28;20044;-76
2023/10/10 15:12:49;;;;;;;0.40;0.40;;;20.10;99.90;;;;;;5094483;28;20036;-75
2023/10/10 15:15:16;;;;;;;0.75;0.75;;;20.10;99.90;;;;;;5094369;28;20039;-76
2023/10/10 15:17:42;;;;;;;1.70;0.75;;;20.10;99.90;;;;;;5094506;28;20491;-77
2023/10/10 15:20:12;;;;;;;0.80;0.60;;;20.00;99.90;;;;;;5094484;28;20047;-75
2023/10/10 15:22:41;;;;;;;0.80;0.45;;;20.00;99.90;;;;;;5094416;28;20365;-75
2023/10/10 15:25:10;;;;;;;0.80;0.47;;;20.00;99.90;;;;;;5094329;28;20088;-77
2023/10/10 15:27:40;;;;;;;0.40;0.40;;;20.00;99.90;;;;;;5094685;28;20044;-76
2023/10/10 15:30:09;;;;;;;0.50;0.43;;;19.90;99.90;;;;;;5094251;28;20036;-75
2023/10/10 15:32:46;;;;;;;0.65;0.65;;;20.00;99.90;;;;;;5094236;28;20032;-78
2023/10/10 15:35:16;;;;;;;0.33;0.33;;;19.80;99.90;;;;;;5094692;28;20047;-77
2023/10/10 15:37:42;;;;;;;0.60;0.60;;;19.80;99.90;;;;;;5094350;28;20044;-76
2023/10/10 15:40:20;;;;;;;1.33;0.87;;;19.80;99.90;;;;;;5094117;28;20062;-76
2023/10/10 15:42:48;;;;;;;0.90;0.85;;;19.70;99.90;;;;;;5092913;28;20387;-76
2023/10/10 15:45:20;;;;;;;0.63;0.60;;;19.70;99.90;;;;;;5093632;28;20032;-77
2023/10/10 15:47:48;;;;;;;2.17;0.60;;;19.60;99.90;;;;;;5094207;28;20040;-77
2023/10/10 15:50:17;;;;;;;1.30;0.85;;;19.60;99.90;;;;;;5093988;28;20050;-76
2023/10/10 15:52:48;;;;;;;0.43;0.43;;;19.60;99.90;;;;;;5093884;28;20480;-76
2023/10/10 15:55:23;;;;;;;0.38;0.38;;;19.50;99.90;;;;;;5093901;28;20036;-76
2023/10/10 15:57:52;;;;;;;1.40;0.52;;;19.50;99.90;;;;;;5093909;28;20085;-77